Time;durP1;ratioP1;P1;durP2;ratioP2;P2;SDS_P1;SDS_P2;PMS_P1;PMS_P2;Temp;Humidity;BMP_temperature;BMP_pressure;BME280_temperature;BME280_humidity;BME280_pressure;Samples;Min_cycle;Max_cycle;Signal;HPM_P1;HPM_P2
2022/03/11 00:01:16;;;;;;;72.03;53.38;;;18.30;48.10;;;;;;4923047;28;92962;-69
2022/03/11 00:03:42;;;;;;;71.07;52.95;;;18.20;48.10;;;;;;4917111;28;89967;-69
2022/03/11 00:06:07;;;;;;;74.72;54.10;;;18.20;48.10;;;;;;4930297;28;95188;-68
2022/03/11 00:08:33;;;;;;;73.00;53.22;;;18.20;48.10;;;;;;4920347;28;89941;-68
2022/03/11 00:10:58;;;;;;;71.65;52.58;;;18.20;48.20;;;;;;4917897;28;91018;-68
2022/03/11 00:13:24;;;;;;;72.28;52.95;;;18.10;48.10;;;;;;4907153;28;90559;-68
2022/03/11 00:15:50;;;;;;;72.57;53.13;;;18.10;48.20;;;;;;4912595;28;90115;-68
2022/03/11 00:18:16;;;;;;;71.30;52.92;;;18.10;48.20;;;;;;4919497;28;91060;-68
2022/03/11 00:20:42;;;;;;;72.18;53.53;;;18.10;48.20;;;;;;4906208;28;95764;-68
2022/03/11 00:23:08;;;;;;;73.97;53.60;;;18.00;48.20;;;;;;4916742;28;90421;-67
2022/03/11 00:25:34;;;;;;;71.40;52.85;;;18.00;48.30;;;;;;4907335;28;89947;-68
2022/03/11 00:27:59;;;;;;;70.40;52.95;;;18.00;48.30;;;;;;4909961;28;90857;-68
2022/03/11 00:30:27;;;;;;;69.30;52.28;;;18.00;48.30;;;;;;4917541;28;89515;-68
2022/03/11 00:32:52;;;;;;;70.82;52.42;;;18.00;48.30;;;;;;4921322;28;89982;-68
2022/03/11 00:35:20;;;;;;;71.28;52.70;;;18.00;48.40;;;;;;4912931;28;94490;-68
2022/03/11 00:37:45;;;;;;;70.85;52.58;;;17.90;48.40;;;;;;4914770;28;91642;-68
2022/03/11 00:40:14;;;;;;;70.88;52.30;;;17.90;48.30;;;;;;4920041;28;89925;-68
2022/03/11 00:42:43;;;;;;;71.45;52.92;;;17.90;48.40;;;;;;4911745;28;96815;-68
2022/03/11 00:45:09;;;;;;;69.97;51.80;;;17.90;48.40;;;;;;4906632;28;91114;-68
2022/03/11 00:47:35;;;;;;;70.60;52.50;;;17.90;48.40;;;;;;4920862;28;90336;-68
2022/03/11 00:50:01;;;;;;;71.10;52.40;;;17.80;48.40;;;;;;4910009;28;89686;-68
2022/03/11 00:52:28;;;;;;;70.15;52.15;;;17.80;48.50;;;;;;4915077;28;89896;-68
2022/03/11 00:54:53;;;;;;;70.22;52.50;;;17.80;48.50;;;;;;4908782;28;92010;-67
2022/03/11 00:57:19;;;;;;;70.93;52.67;;;17.80;48.50;;;;;;4931968;28;93239;-68
2022/03/11 00:59:45;;;;;;;69.95;52.53;;;17.80;49.10;;;;;;4915558;28;90951;-68
2022/03/11 01:02:11;;;;;;;71.45;52.28;;;17.80;48.60;;;;;;4917919;28;89669;-68
2022/03/11 01:04:36;;;;;;;69.75;52.33;;;17.70;48.50;;;;;;4907904;28;94148;-69
2022/03/11 01:07:02;;;;;;;69.95;51.40;;;17.70;48.60;;;;;;4918447;28;91075;-68
2022/03/11 01:09:28;;;;;;;71.15;52.90;;;17.70;48.60;;;;;;4914793;28;89908;-68
2022/03/11 01:11:53;;;;;;;70.32;52.38;;;17.70;48.50;;;;;;4913163;28;90191;-68
2022/03/11 01:14:19;;;;;;;70.18;51.50;;;17.70;48.60;;;;;;4916058;28;92064;-67
2022/03/11 01:16:44;;;;;;;70.82;52.15;;;17.70;48.60;;;;;;4911446;28;91374;-68
2022/03/11 01:19:10;;;;;;;70.38;52.10;;;17.60;48.60;;;;;;4914827;28;91473;-68
2022/03/11 01:21:36;;;;;;;71.07;53.05;;;17.60;48.70;;;;;;4918547;28;91236;-68
2022/03/11 01:24:01;;;;;;;69.57;51.97;;;17.60;48.70;;;;;;4924558;28;91643;-68
2022/03/11 01:26:27;;;;;;;68.93;51.78;;;17.60;48.70;;;;;;4911985;28;93760;-67
2022/03/11 01:28:53;;;;;;;69.75;52.03;;;17.60;48.60;;;;;;4912597;28;96311;-68
2022/03/11 01:31:19;;;;;;;69.45;51.60;;;17.60;48.70;;;;;;4917179;28;89850;-68
2022/03/11 01:33:45;;;;;;;70.18;52.42;;;17.50;48.70;;;;;;4921138;28;90327;-68
2022/03/11 01:36:12;;;;;;;68.78;51.67;;;17.50;48.70;;;;;;4910760;28;91407;-68
2022/03/11 01:38:39;;;;;;;68.10;51.42;;;17.50;48.80;;;;;;4918790;28;95575;-68
2022/03/11 01:41:06;;;;;;;69.10;51.60;;;17.50;48.80;;;;;;4913668;28;88870;-68
2022/03/11 01:43:59;;;;;;;69.60;51.80;;;17.40;48.70;;;;;;4935846;28;92085;-68
2022/03/11 01:46:25;;;;;;;69.65;52.33;;;17.40;48.80;;;;;;4905409;28;91034;-69
2022/03/11 01:48:50;;;;;;;68.22;51.63;;;17.40;48.70;;;;;;4919959;28;90798;-68
2022/03/11 01:51:17;;;;;;;69.30;51.65;;;17.40;48.90;;;;;;4905216;28;89927;-68
2022/03/11 01:53:44;;;;;;;67.75;51.22;;;17.40;48.80;;;;;;4914205;28;90055;-68
2022/03/11 01:56:09;;;;;;;68.95;51.83;;;17.40;48.80;;;;;;4916409;28;90100;-68
2022/03/11 01:58:35;;;;;;;68.80;51.30;;;17.40;48.90;;;;;;4920121;28;89766;-68
2022/03/11 02:01:02;;;;;;;68.50;51.38;;;17.40;48.90;;;;;;4917301;28;89966;-68
2022/03/11 02:03:28;;;;;;;68.15;51.22;;;17.30;48.90;;;;;;4918537;28;91494;-68
2022/03/11 02:05:53;;;;;;;68.30;50.97;;;17.30;48.90;;;;;;4914909;28;89673;-68
2022/03/11 02:08:19;;;;;;;69.32;51.72;;;17.30;49.00;;;;;;4918784;28;92618;-69
2022/03/11 02:10:45;;;;;;;69.20;51.53;;;17.30;49.00;;;;;;4912927;28;90829;-68
2022/03/11 02:13:10;;;;;;;68.53;51.38;;;17.30;49.00;;;;;;4913666;28;91003;-68
2022/03/11 02:15:36;;;;;;;70.43;52.17;;;17.20;49.00;;;;;;4917828;28;90168;-68
2022/03/11 02:18:02;;;;;;;68.57;51.35;;;17.30;49.00;;;;;;4914132;28;89681;-69
2022/03/11 02:20:28;;;;;;;67.72;51.22;;;17.20;48.90;;;;;;4912867;28;89926;-68
2022/03/11 02:22:57;;;;;;;71.22;52.42;;;17.20;49.00;;;;;;4923663;28;90611;-68
2022/03/11 02:25:22;;;;;;;67.90;51.45;;;17.20;49.00;;;;;;4915691;28;89891;-68
2022/03/11 02:27:48;;;;;;;68.05;51.50;;;17.20;48.90;;;;;;4910162;28;91465;-68
2022/03/11 02:30:20;;;;;;;68.70;51.20;;;17.20;48.90;;;;;;4940138;28;88858;-68
2022/03/11 02:32:46;;;;;;;68.10;51.10;;;17.20;48.90;;;;;;4912771;28;90127;-67
2022/03/11 02:35:12;;;;;;;68.07;51.17;;;17.20;49.60;;;;;;4919559;28;89603;-68
2022/03/11 02:37:38;;;;;;;69.35;51.70;;;17.20;49.10;;;;;;4912056;28;91324;-68
2022/03/11 02:40:05;;;;;;;68.03;51.08;;;17.20;49.00;;;;;;4914735;28;96993;-68
2022/03/11 02:42:31;;;;;;;67.72;50.97;;;17.20;48.90;;;;;;4926477;28;90190;-68
2022/03/11 02:45:04;;;;;;;66.50;50.67;;;17.30;49.00;;;;;;4922028;28;90750;-68
2022/03/11 02:47:30;;;;;;;67.68;51.33;;;17.30;48.90;;;;;;4912148;28;90146;-68
2022/03/11 02:49:56;;;;;;;67.55;51.25;;;17.30;48.90;;;;;;4924121;28;89464;-68
2022/03/11 02:52:22;;;;;;;68.10;51.33;;;17.40;48.90;;;;;;4909187;28;89868;-68
2022/03/11 02:54:48;;;;;;;66.95;50.83;;;17.40;48.80;;;;;;4914179;28;88916;-68
2022/03/11 02:57:15;;;;;;;67.32;50.97;;;17.40;48.70;;;;;;4928052;28;89981;-68
2022/03/11 02:59:45;;;;;;;67.50;50.70;;;17.40;48.70;;;;;;4915988;28;89961;-67
2022/03/11 03:02:12;;;;;;;67.30;51.15;;;17.50;48.60;;;;;;4918345;28;92455;-68
2022/03/11 03:04:37;;;;;;;66.65;50.47;;;17.50;48.70;;;;;;4919531;28;90217;-68
2022/03/11 03:07:03;;;;;;;68.72;51.08;;;17.50;48.60;;;;;;4920131;28;89509;-68
2022/03/11 03:09:29;;;;;;;66.90;50.35;;;17.50;48.60;;;;;;4918155;28;90107;-68
2022/03/11 03:11:54;;;;;;;67.13;50.88;;;17.50;48.50;;;;;;4914623;28;93821;-68
2022/03/11 03:14:20;;;;;;;68.43;51.30;;;17.50;48.50;;;;;;4921709;28;90063;-68
2022/03/11 03:16:46;;;;;;;66.85;50.58;;;17.50;48.40;;;;;;4918018;28;89834;-68
2022/03/11 03:19:11;;;;;;;66.80;50.65;;;17.60;48.50;;;;;;4914947;28;90509;-68
2022/03/11 03:21:37;;;;;;;67.78;50.78;;;17.50;48.40;;;;;;4912642;28;97076;-68
2022/03/11 03:24:03;;;;;;;67.10;50.70;;;17.60;48.40;;;;;;4910416;28;91131;-68
2022/03/11 03:26:28;;;;;;;66.90;50.50;;;17.50;48.30;;;;;;4907591;28;91586;-68
2022/03/11 03:28:54;;;;;;;66.82;50.60;;;17.60;48.40;;;;;;4917117;28;91711;-68
2022/03/11 03:31:21;;;;;;;66.85;50.67;;;17.60;48.30;;;;;;4914317;28;90547;-68
2022/03/11 03:33:47;;;;;;;66.18;50.25;;;17.50;48.20;;;;;;4920597;28;90350;-68
2022/03/11 03:36:13;;;;;;;66.20;50.20;;;17.60;48.40;;;;;;4916428;28;90460;-68
2022/03/11 03:38:39;;;;;;;66.30;50.63;;;17.50;48.30;;;;;;4914843;28;90674;-68
2022/03/11 03:41:05;;;;;;;67.50;51.03;;;17.50;48.30;;;;;;4912451;28;90564;-68
2022/03/11 03:43:30;;;;;;;66.97;50.60;;;17.50;48.30;;;;;;4928023;28;91829;-68
2022/03/11 03:45:56;;;;;;;66.55;50.30;;;17.50;48.30;;;;;;4919470;28;89611;-68
2022/03/11 03:48:21;;;;;;;67.93;50.63;;;17.40;48.30;;;;;;4916442;28;89721;-67
2022/03/11 03:50:47;;;;;;;67.03;50.60;;;17.50;48.40;;;;;;4908251;28;91738;-68
2022/03/11 03:53:13;;;;;;;66.28;50.20;;;17.40;48.30;;;;;;4909461;28;93883;-67
2022/03/11 03:55:38;;;;;;;67.15;50.10;;;17.40;48.30;;;;;;4919211;28;89940;-67
2022/03/11 03:58:04;;;;;;;66.95;50.42;;;17.40;48.30;;;;;;4912486;28;91319;-68
2022/03/11 04:00:29;;;;;;;67.30;50.70;;;17.40;48.30;;;;;;4922997;28;90568;-68
2022/03/11 04:02:55;;;;;;;66.70;50.42;;;17.40;48.40;;;;;;4920336;28;90553;-68
2022/03/11 04:05:20;;;;;;;67.28;50.83;;;17.30;48.50;;;;;;4918576;28;89559;-68
2022/03/11 04:07:47;;;;;;;65.53;50.00;;;17.30;48.40;;;;;;4909187;28;88875;-69
2022/03/11 04:10:14;;;;;;;66.85;51.03;;;17.30;48.40;;;;;;4920264;28;89442;-68
2022/03/11 04:12:40;;;;;;;66.28;50.50;;;17.30;48.30;;;;;;4922322;28;90964;-68
2022/03/11 04:15:07;;;;;;;66.43;50.45;;;17.20;48.40;;;;;;4933875;28;90916;-68
2022/03/11 04:17:32;;;;;;;66.38;50.00;;;17.30;48.50;;;;;;4909643;28;89546;-68
2022/03/11 04:19:59;;;;;;;66.05;50.72;;;17.30;48.50;;;;;;4910871;28;90752;-68
2022/03/11 04:22:26;;;;;;;67.30;50.30;;;17.20;48.50;;;;;;4922035;28;89803;-68
2022/03/11 04:24:52;;;;;;;67.25;50.70;;;17.20;49.10;;;;;;4915948;28;90083;-68
2022/03/11 04:27:17;;;;;;;67.80;50.38;;;17.20;48.60;;;;;;4910003;28;95196;-68
2022/03/11 04:29:43;;;;;;;65.85;50.17;;;17.20;48.60;;;;;;4930408;28;98453;-68
2022/03/11 04:32:08;;;;;;;65.55;50.13;;;17.20;48.60;;;;;;4916069;28;89126;-69
2022/03/11 04:34:34;;;;;;;66.60;50.95;;;17.20;48.60;;;;;;4917230;28;90810;-68
2022/03/11 04:37:00;;;;;;;66.47;50.65;;;17.10;48.60;;;;;;4917378;28;90782;-68
2022/03/11 04:39:26;;;;;;;65.97;50.28;;;17.10;48.60;;;;;;4928214;28;91696;-68
2022/03/11 04:41:55;;;;;;;66.72;50.53;;;17.10;48.60;;;;;;4922016;28;93858;-68
2022/03/11 04:44:21;;;;;;;65.93;49.83;;;17.10;48.70;;;;;;4909252;28;90634;-68
2022/03/11 04:46:47;;;;;;;65.82;50.35;;;17.10;48.70;;;;;;4913045;28;96698;-68
2022/03/11 04:49:13;;;;;;;65.70;50.10;;;17.10;48.70;;;;;;4907130;28;90597;-68
2022/03/11 04:51:38;;;;;;;65.60;49.80;;;17.00;48.80;;;;;;4916565;28;89941;-68
2022/03/11 04:54:06;;;;;;;67.50;50.42;;;17.00;48.70;;;;;;4913397;28;90108;-68
2022/03/11 04:56:32;;;;;;;66.30;49.83;;;17.00;48.80;;;;;;4916896;28;89381;-69
2022/03/11 04:58:58;;;;;;;66.88;50.85;;;17.10;48.90;;;;;;4913968;28;91443;-68
2022/03/11 05:01:24;;;;;;;68.18;50.70;;;17.10;49.00;;;;;;4921238;28;89720;-68
2022/03/11 05:03:50;;;;;;;66.60;50.42;;;17.10;49.10;;;;;;4918851;28;91394;-69
2022/03/11 05:06:16;;;;;;;67.82;50.67;;;17.20;49.10;;;;;;4915037;28;90768;-69
2022/03/11 05:08:42;;;;;;;65.60;50.03;;;17.20;49.00;;;;;;4916474;28;90654;-69
2022/03/11 05:11:07;;;;;;;66.82;50.58;;;17.30;49.00;;;;;;4920623;28;90323;-68
2022/03/11 05:13:33;;;;;;;66.00;50.08;;;17.40;49.00;;;;;;4919295;28;90390;-68
2022/03/11 05:15:59;;;;;;;66.45;50.22;;;17.40;49.00;;;;;;4918942;28;89883;-68
2022/03/11 05:18:25;;;;;;;66.65;50.53;;;17.50;48.90;;;;;;4918128;28;90090;-68
2022/03/11 05:20:51;;;;;;;66.95;50.08;;;17.50;48.80;;;;;;4915493;28;89837;-69
2022/03/11 05:23:16;;;;;;;65.88;50.13;;;17.60;48.80;;;;;;4916353;28;95156;-68
2022/03/11 05:25:42;;;;;;;68.38;50.20;;;17.70;48.70;;;;;;4917854;28;90972;-69
2022/03/11 05:28:08;;;;;;;67.20;50.00;;;17.70;48.60;;;;;;4908043;28;92063;-68
2022/03/11 05:30:36;;;;;;;68.75;50.67;;;17.80;48.60;;;;;;4921282;28;91783;-68
2022/03/11 05:33:02;;;;;;;66.60;50.08;;;17.80;48.40;;;;;;4923544;28;90158;-68
2022/03/11 05:35:27;;;;;;;66.45;49.90;;;17.90;48.30;;;;;;4916205;28;89368;-69
2022/03/11 05:37:54;;;;;;;65.95;50.08;;;17.90;48.20;;;;;;4919038;28;90335;-69
2022/03/11 05:40:19;;;;;;;66.38;50.10;;;18.00;48.30;;;;;;4916131;28;90004;-68
2022/03/11 05:42:45;;;;;;;67.03;50.50;;;18.00;48.80;;;;;;4918350;28;90053;-68
2022/03/11 05:45:12;;;;;;;66.50;50.08;;;18.00;48.10;;;;;;4933866;28;89726;-68
2022/03/11 05:47:38;;;;;;;66.45;50.22;;;18.10;48.00;;;;;;4923041;28;90314;-68
2022/03/11 05:50:04;;;;;;;70.22;51.17;;;18.10;48.10;;;;;;4915383;28;90250;-68
2022/03/11 05:52:30;;;;;;;66.95;50.08;;;18.20;48.00;;;;;;4913563;28;90881;-68
2022/03/11 05:54:55;;;;;;;66.38;50.35;;;18.20;48.00;;;;;;4916344;28;89879;-68
2022/03/11 05:57:21;;;;;;;65.70;49.75;;;18.20;47.90;;;;;;4915994;28;90091;-68
2022/03/11 05:59:47;;;;;;;66.65;49.88;;;18.30;47.80;;;;;;4919205;28;90063;-68
2022/03/11 06:02:12;;;;;;;68.43;49.85;;;18.30;47.90;;;;;;4906805;28;90292;-68
2022/03/11 06:04:38;;;;;;;66.65;50.15;;;18.30;47.80;;;;;;4902762;28;90303;-66
2022/03/11 06:07:05;;;;;;;66.95;50.42;;;18.30;48.40;;;;;;4929040;28;89919;-66
2022/03/11 06:09:30;;;;;;;67.68;50.65;;;18.40;47.80;;;;;;4914767;28;89301;-66
2022/03/11 06:11:56;;;;;;;66.65;50.35;;;18.40;47.80;;;;;;4916412;28;91052;-64
2022/03/11 06:14:22;;;;;;;66.55;50.40;;;18.40;47.70;;;;;;4916963;28;90005;-66
2022/03/11 06:16:48;;;;;;;66.25;50.00;;;18.50;47.80;;;;;;4913517;28;93837;-65
2022/03/11 06:19:14;;;;;;;66.28;50.13;;;18.50;47.80;;;;;;4911648;28;93126;-65
2022/03/11 06:21:39;;;;;;;68.28;50.45;;;18.50;47.70;;;;;;4908663;28;89880;-70
2022/03/11 06:24:06;;;;;;;66.90;50.10;;;18.50;47.50;;;;;;4900359;28;89623;-65
2022/03/11 06:26:32;;;;;;;67.30;50.20;;;18.60;47.40;;;;;;4908345;28;90829;-65
2022/03/11 06:28:57;;;;;;;66.72;49.70;;;18.60;47.50;;;;;;4906201;28;90574;-62
2022/03/11 06:31:23;;;;;;;67.40;50.35;;;18.60;47.50;;;;;;4904204;28;91940;-66
2022/03/11 06:33:49;;;;;;;67.93;50.38;;;18.60;47.50;;;;;;4914171;28;91331;-66
2022/03/11 06:36:14;;;;;;;67.10;50.33;;;18.70;47.50;;;;;;4908290;28;91447;-64
2022/03/11 06:38:40;;;;;;;67.55;50.50;;;18.70;47.40;;;;;;4906648;28;91609;-64
2022/03/11 06:41:06;;;;;;;66.65;50.55;;;18.70;47.20;;;;;;4907475;28;97132;-65
2022/03/11 06:43:32;;;;;;;66.53;49.83;;;18.70;47.10;;;;;;4909473;28;91991;-65
2022/03/11 06:45:58;;;;;;;67.68;50.20;;;18.70;47.30;;;;;;4917432;28;92037;-67
2022/03/11 06:48:23;;;;;;;66.97;50.33;;;18.80;47.50;;;;;;4917194;28;89928;-66
2022/03/11 06:50:49;;;;;;;67.63;50.38;;;18.80;47.30;;;;;;4912545;28;96405;-66
2022/03/11 06:53:15;;;;;;;67.68;50.33;;;18.80;47.20;;;;;;4919281;28;89877;-66
2022/03/11 06:55:41;;;;;;;68.32;50.70;;;18.80;47.20;;;;;;4920685;28;90018;-66
2022/03/11 06:58:07;;;;;;;67.13;50.30;;;18.80;47.20;;;;;;4915947;28;89159;-67
2022/03/11 07:00:32;;;;;;;67.05;49.95;;;18.90;47.20;;;;;;4898312;28;90803;-65
2022/03/11 07:02:58;;;;;;;68.88;50.42;;;18.90;47.20;;;;;;4909788;28;90323;-66
2022/03/11 07:05:25;;;;;;;66.80;50.20;;;18.90;47.20;;;;;;4911352;28;93472;-66
2022/03/11 07:07:51;;;;;;;67.35;50.35;;;18.90;47.10;;;;;;4915353;28;91194;-66
2022/03/11 07:10:17;;;;;;;67.00;50.20;;;18.90;47.10;;;;;;4915826;28;89813;-66
2022/03/11 07:12:43;;;;;;;68.07;50.33;;;18.90;47.10;;;;;;4913040;28;90889;-67
2022/03/11 07:15:10;;;;;;;68.97;50.03;;;18.90;47.20;;;;;;4914117;28;90331;-67
2022/03/11 07:17:36;;;;;;;67.43;50.17;;;19.00;47.10;;;;;;4913099;28;90857;-65
2022/03/11 07:20:05;;;;;;;69.03;50.53;;;19.00;47.30;;;;;;4915520;28;89916;-67
2022/03/11 07:22:34;;;;;;;68.88;50.67;;;19.00;47.00;;;;;;4919098;28;88996;-67
2022/03/11 07:25:00;;;;;;;71.07;50.85;;;19.10;46.90;;;;;;4913019;28;90030;-66
2022/03/11 07:27:26;;;;;;;71.03;50.90;;;19.10;46.80;;;;;;4905369;28;92436;-66
2022/03/11 07:29:53;;;;;;;69.35;50.83;;;19.10;46.60;;;;;;4900786;28;92173;-67
2022/03/11 07:32:18;;;;;;;69.70;50.97;;;19.10;46.50;;;;;;4911059;28;89913;-68
2022/03/11 07:34:44;;;;;;;72.95;51.08;;;19.10;46.40;;;;;;4911665;28;90048;-64
2022/03/11 07:37:12;;;;;;;71.00;51.17;;;19.20;46.20;;;;;;4905298;28;92364;-66
2022/03/11 07:39:39;;;;;;;74.35;52.25;;;19.20;46.20;;;;;;4903715;28;89672;-67
2022/03/11 07:42:05;;;;;;;73.90;51.42;;;19.20;45.90;;;;;;4925915;28;89947;-67
2022/03/11 07:44:33;;;;;;;74.05;51.80;;;19.20;45.90;;;;;;4917597;28;89982;-65
2022/03/11 07:46:59;;;;;;;73.88;51.35;;;19.20;46.30;;;;;;4916322;28;90802;-67
2022/03/11 07:49:25;;;;;;;73.15;51.50;;;19.30;45.80;;;;;;4908364;28;89765;-67
2022/03/11 07:51:50;;;;;;;80.63;51.88;;;19.30;46.00;;;;;;4914636;28;90845;-68
2022/03/11 07:54:16;;;;;;;73.97;51.88;;;19.30;46.10;;;;;;4936636;28;90978;-68
2022/03/11 07:56:42;;;;;;;73.63;51.60;;;19.40;46.40;;;;;;4919841;28;90120;-67
2022/03/11 07:59:08;;;;;;;75.00;52.00;;;19.40;46.70;;;;;;4899474;28;94045;-66
2022/03/11 08:01:34;;;;;;;75.88;51.92;;;19.40;46.80;;;;;;4909750;28;90505;-66
2022/03/11 08:03:59;;;;;;;73.93;51.83;;;19.40;46.70;;;;;;4913340;28;95706;-70
2022/03/11 08:06:25;;;;;;;79.03;51.88;;;19.40;46.50;;;;;;4913782;28;90567;-69
2022/03/11 08:08:51;;;;;;;74.97;51.75;;;19.40;46.10;;;;;;4918701;28;89669;-71
2022/03/11 08:11:16;;;;;;;72.35;52.10;;;19.40;45.80;;;;;;4902011;28;89132;-68
2022/03/11 08:13:42;;;;;;;80.13;53.05;;;19.50;45.70;;;;;;4908101;28;91883;-69
2022/03/11 08:16:09;;;;;;;76.25;52.92;;;19.40;45.50;;;;;;4917056;28;90053;-67
2022/03/11 08:18:35;;;;;;;78.28;51.95;;;19.50;45.50;;;;;;4909539;28;96717;-69
2022/03/11 08:21:03;;;;;;;74.90;52.53;;;19.40;45.40;;;;;;4907228;28;89359;-67
2022/03/11 08:23:29;;;;;;;79.55;52.25;;;19.40;45.40;;;;;;4908845;28;91600;-68
2022/03/11 08:25:54;;;;;;;79.15;52.55;;;19.40;45.60;;;;;;4904437;28;90227;-69
2022/03/11 08:28:22;;;;;;;73.13;52.25;;;19.40;45.60;;;;;;4900646;28;90657;-70
2022/03/11 08:30:48;;;;;;;81.07;52.85;;;19.40;45.90;;;;;;4912534;28;90425;-67
2022/03/11 08:33:20;;;;;;;74.35;53.10;;;19.40;45.80;;;;;;4911483;28;91189;-71
2022/03/11 08:35:46;;;;;;;;;;;19.40;45.90;;;;;;4914740;28;92648;-72
2022/03/11 08:38:12;;;;;;;79.82;52.95;;;19.40;46.00;;;;;;4922623;28;89876;-70
2022/03/11 08:40:38;;;;;;;80.00;52.63;;;19.40;46.10;;;;;;4932423;28;90281;-69
2022/03/11 08:43:03;;;;;;;88.40;53.58;;;19.30;46.10;;;;;;4909400;28;93045;-70
2022/03/11 08:45:30;;;;;;;83.35;53.55;;;19.40;46.20;;;;;;4913947;28;90450;-70
2022/03/11 08:47:55;;;;;;;85.68;53.17;;;19.30;46.20;;;;;;4910171;28;90248;-70
2022/03/11 08:50:21;;;;;;;82.18;53.47;;;19.40;46.20;;;;;;4914900;28;95898;-71
2022/03/11 08:52:47;;;;;;;79.93;53.75;;;19.40;46.20;;;;;;4918263;28;92119;-71
2022/03/11 08:55:14;;;;;;;81.88;53.50;;;19.30;46.20;;;;;;4915574;28;89828;-70
2022/03/11 08:57:41;;;;;;;83.00;53.45;;;19.40;46.20;;;;;;4921421;28;90055;-70
2022/03/11 09:00:14;;;;;;;82.03;53.97;;;19.40;46.20;;;;;;4917737;28;89976;-70
2022/03/11 09:02:39;;;;;;;81.07;53.25;;;19.40;46.30;;;;;;4914924;28;89902;-70
2022/03/11 09:05:07;;;;;;;81.43;53.78;;;19.40;46.30;;;;;;4921128;28;90099;-70
2022/03/11 09:07:33;;;;;;;79.68;52.97;;;19.40;46.30;;;;;;4916964;28;92872;-68
2022/03/11 09:09:59;;;;;;;82.88;53.88;;;19.40;46.90;;;;;;4922284;28;89511;-69
2022/03/11 09:12:25;;;;;;;79.25;53.53;;;19.40;46.40;;;;;;4913106;28;92684;-70
2022/03/11 09:14:51;;;;;;;82.93;53.85;;;19.40;46.40;;;;;;4911873;28;96244;-71
2022/03/11 09:17:16;;;;;;;88.53;53.78;;;19.40;46.70;;;;;;4912827;28;93844;-72
2022/03/11 09:19:43;;;;;;;86.82;53.72;;;19.40;46.70;;;;;;4913453;28;89489;-71
2022/03/11 09:22:11;;;;;;;78.38;53.97;;;19.40;46.70;;;;;;4925232;28;90541;-70
2022/03/11 09:24:39;;;;;;;78.30;53.90;;;19.50;46.80;;;;;;4928552;28;91354;-71
2022/03/11 09:27:06;;;;;;;80.82;53.67;;;19.40;46.80;;;;;;4904022;28;93856;-70
2022/03/11 09:29:31;;;;;;;79.00;53.90;;;19.40;46.80;;;;;;4904751;28;90745;-71
2022/03/11 09:31:57;;;;;;;78.53;53.35;;;19.40;46.80;;;;;;4916166;28;91723;-69
2022/03/11 09:34:24;;;;;;;80.20;54.15;;;19.40;46.80;;;;;;4908630;28;90643;-70
2022/03/11 09:36:52;;;;;;;77.18;53.88;;;19.40;46.90;;;;;;4915053;28;90320;-72
2022/03/11 09:39:19;;;;;;;80.93;53.80;;;19.40;46.80;;;;;;4912325;28;90674;-70
2022/03/11 09:41:46;;;;;;;84.70;53.90;;;19.40;46.70;;;;;;4907853;28;90189;-72
2022/03/11 09:44:14;;;;;;;80.78;53.90;;;19.40;46.60;;;;;;4922611;28;89976;-71
2022/03/11 09:46:42;;;;;;;82.55;53.55;;;19.30;46.40;;;;;;4917637;28;92410;-69
2022/03/11 09:49:08;;;;;;;73.82;53.38;;;19.40;46.40;;;;;;4918280;28;89169;-71
2022/03/11 09:51:35;;;;;;;77.93;53.50;;;19.40;46.40;;;;;;4925399;28;93160;-69
2022/03/11 09:54:02;;;;;;;79.65;53.30;;;19.40;46.20;;;;;;4917373;28;91266;-70
2022/03/11 09:56:29;;;;;;;79.03;53.47;;;19.40;46.10;;;;;;4911894;28;93461;-71
2022/03/11 09:58:55;;;;;;;80.57;53.05;;;19.40;46.00;;;;;;4915921;28;91626;-69
2022/03/11 10:01:21;;;;;;;84.95;53.25;;;19.40;45.90;;;;;;4910162;28;91518;-68
2022/03/11 10:03:47;;;;;;;80.28;53.20;;;19.40;45.90;;;;;;4915087;28;90263;-71
2022/03/11 10:06:13;;;;;;;86.85;53.65;;;19.40;45.90;;;;;;4932790;28;89438;-72
2022/03/11 10:08:42;;;;;;;78.82;53.60;;;19.40;45.90;;;;;;4915839;28;90074;-70
2022/03/11 10:11:26;;;;;;;78.20;53.17;;;19.40;45.80;;;;;;4929480;28;95797;-71
2022/03/11 10:13:54;;;;;;;78.22;53.05;;;19.40;45.90;;;;;;4912552;28;89997;-71
2022/03/11 10:16:23;;;;;;;77.25;52.88;;;19.40;46.00;;;;;;4905859;28;90976;-71
2022/03/11 10:19:09;;;;;;;73.68;52.47;;;19.40;46.20;;;;;;4923810;28;97400;-71
2022/03/11 10:21:39;;;;;;;75.25;52.70;;;19.50;46.30;;;;;;4912840;28;91345;-71
2022/03/11 10:24:08;;;;;;;74.90;52.43;;;19.50;46.20;;;;;;4922708;28;91071;-71
2022/03/11 10:26:39;;;;;;;76.82;51.72;;;19.50;46.20;;;;;;4915636;28;90910;-68
2022/03/11 10:29:10;;;;;;;75.60;52.22;;;19.50;46.20;;;;;;4922466;28;90346;-71
2022/03/11 10:31:41;;;;;;;76.68;52.67;;;19.50;46.20;;;;;;4906887;28;89903;-69
2022/03/11 10:34:26;;;;;;;76.88;52.38;;;19.50;46.10;;;;;;4915593;28;90791;-72
2022/03/11 10:37:00;;;;;;;77.55;52.00;;;19.60;46.20;;;;;;4910693;28;96616;-71
2022/03/11 10:39:27;;;;;;;77.97;52.22;;;19.50;46.20;;;;;;4927400;28;90677;-72
2022/03/11 10:41:58;;;;;;;72.72;51.90;;;19.60;46.30;;;;;;4911787;28;89961;-69
2022/03/11 10:44:26;;;;;;;73.97;52.30;;;19.50;46.10;;;;;;4915513;28;90035;-71
2022/03/11 10:47:00;;;;;;;72.93;52.17;;;19.60;46.20;;;;;;4921006;28;98105;-71
2022/03/11 10:49:33;;;;;;;74.63;52.20;;;19.60;46.20;;;;;;4911843;28;90449;-72
2022/03/11 10:52:00;;;;;;;71.18;51.78;;;19.50;46.10;;;;;;4908197;28;92241;-72
2022/03/11 10:54:28;;;;;;;72.95;52.53;;;19.60;46.20;;;;;;4916263;28;96411;-72
2022/03/11 10:56:55;;;;;;;74.00;52.40;;;19.60;46.20;;;;;;4913618;28;89863;-74
2022/03/11 10:59:27;;;;;;;73.20;51.78;;;19.60;46.20;;;;;;4907441;28;90160;-73
2022/03/11 11:01:54;;;;;;;74.72;52.25;;;19.60;46.20;;;;;;4911802;28;91927;-69
2022/03/11 11:04:20;;;;;;;73.00;51.90;;;19.60;46.20;;;;;;4912661;28;90447;-71
2022/03/11 11:06:47;;;;;;;74.43;51.63;;;19.60;46.30;;;;;;4910827;28;92920;-70
2022/03/11 11:09:14;;;;;;;74.57;52.25;;;19.60;46.30;;;;;;4908834;28;91190;-71
2022/03/11 11:11:42;;;;;;;74.65;51.95;;;19.50;46.20;;;;;;4910497;28;91522;-74
2022/03/11 11:14:08;;;;;;;74.38;51.72;;;19.50;46.30;;;;;;4912294;28;93840;-75
2022/03/11 11:16:41;;;;;;;75.32;52.17;;;19.50;46.30;;;;;;4906815;28;91434;-71
2022/03/11 11:19:15;;;;;;;73.97;51.92;;;19.50;46.50;;;;;;4924328;28;89790;-72
2022/03/11 11:21:46;;;;;;;73.95;51.97;;;19.50;46.50;;;;;;4915925;28;89611;-73
2022/03/11 11:24:23;;;;;;;77.20;51.90;;;19.50;46.60;;;;;;4915278;28;89806;-72
2022/03/11 11:26:53;;;;;;;74.93;52.10;;;19.50;46.60;;;;;;4909007;28;91876;-72
2022/03/11 11:29:25;;;;;;;71.65;51.92;;;19.50;46.60;;;;;;4898848;28;90329;-73
2022/03/11 11:31:51;;;;;;;71.95;51.97;;;19.50;46.70;;;;;;4907202;28;96204;-74
2022/03/11 11:34:31;;;;;;;71.97;51.88;;;19.50;46.80;;;;;;4922192;28;91325;-72
2022/03/11 11:36:57;;;;;;;75.50;52.15;;;19.50;46.80;;;;;;4917801;28;91623;-72
2022/03/11 11:39:26;;;;;;;72.35;52.03;;;19.50;46.80;;;;;;4921187;28;89453;-72
2022/03/11 11:41:56;;;;;;;73.57;51.97;;;19.50;46.80;;;;;;4915638;28;89976;-73
2022/03/11 11:44:39;;;;;;;72.65;52.05;;;19.50;46.90;;;;;;4917190;28;89784;-72
2022/03/11 11:47:15;;;;;;;70.80;51.63;;;19.50;46.90;;;;;;4915921;28;96857;-70
2022/03/11 11:49:46;;;;;;;75.35;52.08;;;19.50;46.90;;;;;;4915829;28;90733;-71
2022/03/11 11:52:29;;;;;;;73.07;51.92;;;19.50;46.90;;;;;;4913302;28;91454;-72
2022/03/11 11:55:19;;;;;;;75.55;52.03;;;19.50;46.90;;;;;;4914859;28;90690;-70
2022/03/11 11:57:46;;;;;;;75.45;52.15;;;19.50;47.10;;;;;;4913762;28;89861;-72
2022/03/11 12:00:27;;;;;;;75.93;52.50;;;19.50;47.40;;;;;;4915430;28;89713;-72
2022/03/11 12:02:53;;;;;;;73.30;52.33;;;19.50;47.70;;;;;;4915778;28;91931;-72
2022/03/11 12:05:45;;;;;;;74.80;52.42;;;19.50;47.90;;;;;;4912842;28;93357;-72
2022/03/11 12:08:34;;;;;;;73.38;52.40;;;19.50;47.90;;;;;;4916748;28;90437;-72
2022/03/11 12:11:00;;;;;;;75.18;52.63;;;19.60;48.50;;;;;;4932380;28;90016;-72
2022/03/11 12:13:37;;;;;;;73.45;52.67;;;19.60;48.90;;;;;;4914795;28;90297;-72
2022/03/11 12:16:04;;;;;;;73.05;52.83;;;19.60;48.90;;;;;;4915456;28;92377;-72
2022/03/11 12:18:41;;;;;;;75.20;53.03;;;19.60;49.00;;;;;;4922282;28;89945;-71
2022/03/11 12:21:09;;;;;;;76.38;53.03;;;19.70;49.00;;;;;;4931022;28;89015;-71
2022/03/11 12:23:36;;;;;;;74.47;52.72;;;19.60;49.00;;;;;;4927575;28;91834;-72
2022/03/11 12:26:09;;;;;;;75.07;52.63;;;19.70;49.00;;;;;;4915013;28;89485;-71
2022/03/11 12:28:39;;;;;;;74.13;52.83;;;19.70;48.80;;;;;;4908719;28;90691;-71